sensor_id;sensor_type;location;lat;lon;timestamp;P1;durP1;ratioP1;P2;durP2;ratioP2
84357;SDS011;74548;47.712;9.272;2024-03-22T00:00:29;3.87;;;2.60;;
84357;SDS011;74548;47.712;9.272;2024-03-22T00:02:55;3.83;;;2.30;;
84357;SDS011;74548;47.712;9.272;2024-03-22T00:08:12;5.68;;;3.13;;
84357;SDS011;74548;47.712;9.272;2024-03-22T00:10:37;6.50;;;2.90;;
84357;SDS011;74548;47.712;9.272;2024-03-22T00:13:03;4.80;;;2.37;;
84357;SDS011;74548;47.712;9.272;2024-03-22T00:15:28;3.92;;;2.70;;
84357;SDS011;74548;47.712;9.272;2024-03-22T00:17:53;3.13;;;2.30;;
84357;SDS011;74548;47.712;9.272;2024-03-22T00:20:19;4.23;;;2.40;;
84357;SDS011;74548;47.712;9.272;2024-03-22T00:22:45;5.00;;;2.90;;
84357;SDS011;74548;47.712;9.272;2024-03-22T00:25:10;5.13;;;2.97;;
84357;SDS011;74548;47.712;9.272;2024-03-22T00:27:35;4.97;;;2.60;;
84357;SDS011;74548;47.712;9.272;2024-03-22T00:30:01;4.20;;;2.83;;
84357;SDS011;74548;47.712;9.272;2024-03-22T00:32:26;4.68;;;2.72;;
84357;SDS011;74548;47.712;9.272;2024-03-22T00:34:51;4.33;;;3.00;;
84357;SDS011;74548;47.712;9.272;2024-03-22T00:37:17;3.50;;;2.67;;
84357;SDS011;74548;47.712;9.272;2024-03-22T00:39:42;4.37;;;3.07;;
84357;SDS011;74548;47.712;9.272;2024-03-22T00:42:07;6.70;;;3.07;;
84357;SDS011;74548;47.712;9.272;2024-03-22T00:44:32;5.57;;;3.07;;
84357;SDS011;74548;47.712;9.272;2024-03-22T00:46:58;4.97;;;3.20;;
84357;SDS011;74548;47.712;9.272;2024-03-22T00:51:38;3.95;;;2.70;;
84357;SDS011;74548;47.712;9.272;2024-03-22T00:54:03;4.25;;;2.60;;
84357;SDS011;74548;47.712;9.272;2024-03-22T00:56:28;8.07;;;2.53;;
84357;SDS011;74548;47.712;9.272;2024-03-22T00:58:54;5.77;;;2.67;;
84357;SDS011;74548;47.712;9.272;2024-03-22T01:01:19;4.72;;;2.45;;
84357;SDS011;74548;47.712;9.272;2024-03-22T01:03:44;10.07;;;2.70;;
84357;SDS011;74548;47.712;9.272;2024-03-22T01:06:09;5.93;;;3.00;;
84357;SDS011;74548;47.712;9.272;2024-03-22T01:08:35;5.43;;;2.65;;
84357;SDS011;74548;47.712;9.272;2024-03-22T01:11:01;7.57;;;2.75;;
84357;SDS011;74548;47.712;9.272;2024-03-22T01:13:27;5.10;;;3.00;;
84357;SDS011;74548;47.712;9.272;2024-03-22T01:18:17;4.90;;;2.88;;
84357;SDS011;74548;47.712;9.272;2024-03-22T01:20:43;5.57;;;2.87;;
84357;SDS011;74548;47.712;9.272;2024-03-22T01:23:08;3.05;;;2.45;;
84357;SDS011;74548;47.712;9.272;2024-03-22T01:25:33;3.75;;;2.97;;
84357;SDS011;74548;47.712;9.272;2024-03-22T01:27:59;3.65;;;2.17;;
84357;SDS011;74548;47.712;9.272;2024-03-22T01:30:24;3.95;;;2.60;;
84357;SDS011;74548;47.712;9.272;2024-03-22T01:32:53;7.45;;;3.97;;
84357;SDS011;74548;47.712;9.272;2024-03-22T01:35:19;3.65;;;2.30;;
84357;SDS011;74548;47.712;9.272;2024-03-22T01:39:57;5.53;;;2.90;;
84357;SDS011;74548;47.712;9.272;2024-03-22T01:42:23;4.85;;;3.13;;
84357;SDS011;74548;47.712;9.272;2024-03-22T01:44:48;6.55;;;3.13;;
84357;SDS011;74548;47.712;9.272;2024-03-22T01:47:14;5.88;;;2.60;;
84357;SDS011;74548;47.712;9.272;2024-03-22T01:49:40;4.30;;;2.72;;
84357;SDS011;74548;47.712;9.272;2024-03-22T01:52:05;6.60;;;2.83;;
84357;SDS011;74548;47.712;9.272;2024-03-22T01:54:31;5.60;;;2.60;;
84357;SDS011;74548;47.712;9.272;2024-03-22T01:56:56;4.25;;;2.50;;
84357;SDS011;74548;47.712;9.272;2024-03-22T01:59:21;4.55;;;2.67;;
84357;SDS011;74548;47.712;9.272;2024-03-22T02:04:16;5.30;;;3.13;;
84357;SDS011;74548;47.712;9.272;2024-03-22T02:09:10;4.47;;;2.83;;
84357;SDS011;74548;47.712;9.272;2024-03-22T02:11:36;3.55;;;2.47;;
84357;SDS011;74548;47.712;9.272;2024-03-22T02:14:05;4.97;;;3.03;;
84357;SDS011;74548;47.712;9.272;2024-03-22T02:16:30;4.60;;;2.73;;
84357;SDS011;74548;47.712;9.272;2024-03-22T02:18:55;3.65;;;2.70;;
84357;SDS011;74548;47.712;9.272;2024-03-22T02:21:21;5.10;;;2.90;;
84357;SDS011;74548;47.712;9.272;2024-03-22T02:23:46;4.27;;;2.53;;
84357;SDS011;74548;47.712;9.272;2024-03-22T02:26:11;4.50;;;3.07;;
84357;SDS011;74548;47.712;9.272;2024-03-22T02:28:37;3.63;;;2.60;;
84357;SDS011;74548;47.712;9.272;2024-03-22T02:31:02;4.00;;;2.70;;
84357;SDS011;74548;47.712;9.272;2024-03-22T02:33:28;5.25;;;2.80;;
84357;SDS011;74548;47.712;9.272;2024-03-22T02:35:54;3.80;;;2.90;;
84357;SDS011;74548;47.712;9.272;2024-03-22T02:38:19;3.70;;;2.63;;
84357;SDS011;74548;47.712;9.272;2024-03-22T02:40:45;7.03;;;3.50;;
84357;SDS011;74548;47.712;9.272;2024-03-22T02:43:11;6.40;;;2.92;;
84357;SDS011;74548;47.712;9.272;2024-03-22T02:45:37;6.55;;;2.92;;
84357;SDS011;74548;47.712;9.272;2024-03-22T02:48:02;6.43;;;3.47;;
84357;SDS011;74548;47.712;9.272;2024-03-22T02:50:31;5.88;;;3.47;;
84357;SDS011;74548;47.712;9.272;2024-03-22T02:52:58;7.10;;;3.78;;
84357;SDS011;74548;47.712;9.272;2024-03-22T02:55:23;5.47;;;3.60;;
84357;SDS011;74548;47.712;9.272;2024-03-22T02:57:49;4.80;;;3.47;;
84357;SDS011;74548;47.712;9.272;2024-03-22T03:00:15;4.07;;;3.25;;
84357;SDS011;74548;47.712;9.272;2024-03-22T03:02:40;5.38;;;3.58;;
84357;SDS011;74548;47.712;9.272;2024-03-22T03:05:05;7.00;;;3.70;;
84357;SDS011;74548;47.712;9.272;2024-03-22T03:07:31;6.50;;;3.28;;
84357;SDS011;74548;47.712;9.272;2024-03-22T03:09:56;6.97;;;3.70;;
84357;SDS011;74548;47.712;9.272;2024-03-22T03:12:22;5.67;;;4.07;;
84357;SDS011;74548;47.712;9.272;2024-03-22T03:14:47;4.60;;;3.13;;
84357;SDS011;74548;47.712;9.272;2024-03-22T03:17:12;4.60;;;3.20;;
84357;SDS011;74548;47.712;9.272;2024-03-22T03:19:38;4.70;;;3.50;;
84357;SDS011;74548;47.712;9.272;2024-03-22T03:22:03;6.37;;;3.70;;
84357;SDS011;74548;47.712;9.272;2024-03-22T03:24:29;5.45;;;3.80;;
84357;SDS011;74548;47.712;9.272;2024-03-22T03:26:54;4.78;;;3.40;;
84357;SDS011;74548;47.712;9.272;2024-03-22T03:29:20;7.22;;;3.40;;
84357;SDS011;74548;47.712;9.272;2024-03-22T03:31:45;5.85;;;3.53;;
84357;SDS011;74548;47.712;9.272;2024-03-22T03:34:10;6.90;;;3.53;;
84357;SDS011;74548;47.712;9.272;2024-03-22T03:36:36;7.03;;;3.60;;
84357;SDS011;74548;47.712;9.272;2024-03-22T03:39:01;5.10;;;3.00;;
84357;SDS011;74548;47.712;9.272;2024-03-22T03:41:27;4.95;;;3.38;;
84357;SDS011;74548;47.712;9.272;2024-03-22T03:43:52;4.50;;;3.70;;
84357;SDS011;74548;47.712;9.272;2024-03-22T03:46:17;5.63;;;3.40;;
84357;SDS011;74548;47.712;9.272;2024-03-22T03:48:42;5.47;;;2.93;;
84357;SDS011;74548;47.712;9.272;2024-03-22T03:51:08;7.05;;;3.95;;
84357;SDS011;74548;47.712;9.272;2024-03-22T03:53:33;4.63;;;2.90;;
84357;SDS011;74548;47.712;9.272;2024-03-22T03:55:59;10.73;;;3.92;;
84357;SDS011;74548;47.712;9.272;2024-03-22T03:58:24;5.20;;;3.45;;
84357;SDS011;74548;47.712;9.272;2024-03-22T04:00:49;5.18;;;3.50;;
84357;SDS011;74548;47.712;9.272;2024-03-22T04:03:15;4.70;;;3.13;;
84357;SDS011;74548;47.712;9.272;2024-03-22T04:05:40;6.93;;;3.57;;
84357;SDS011;74548;47.712;9.272;2024-03-22T04:08:05;5.70;;;3.47;;
84357;SDS011;74548;47.712;9.272;2024-03-22T04:10:31;5.20;;;3.20;;
84357;SDS011;74548;47.712;9.272;2024-03-22T04:12:57;4.28;;;3.42;;
84357;SDS011;74548;47.712;9.272;2024-03-22T04:15:23;5.97;;;3.67;;
84357;SDS011;74548;47.712;9.272;2024-03-22T04:17:48;4.80;;;3.65;;
84357;SDS011;74548;47.712;9.272;2024-03-22T04:20:13;5.33;;;3.83;;
84357;SDS011;74548;47.712;9.272;2024-03-22T04:22:39;5.75;;;3.50;;
84357;SDS011;74548;47.712;9.272;2024-03-22T04:25:04;5.77;;;3.40;;
84357;SDS011;74548;47.712;9.272;2024-03-22T04:27:30;6.15;;;3.80;;
84357;SDS011;74548;47.712;9.272;2024-03-22T04:29:55;6.67;;;4.60;;
84357;SDS011;74548;47.712;9.272;2024-03-22T04:32:21;7.13;;;3.60;;
84357;SDS011;74548;47.712;9.272;2024-03-22T04:37:10;4.30;;;3.33;;
84357;SDS011;74548;47.712;9.272;2024-03-22T04:39:37;5.43;;;3.45;;
84357;SDS011;74548;47.712;9.272;2024-03-22T04:42:02;5.13;;;3.75;;
84357;SDS011;74548;47.712;9.272;2024-03-22T04:44:29;7.43;;;3.47;;
84357;SDS011;74548;47.712;9.272;2024-03-22T04:46:54;3.95;;;3.10;;
84357;SDS011;74548;47.712;9.272;2024-03-22T04:49:20;5.00;;;3.45;;
84357;SDS011;74548;47.712;9.272;2024-03-22T04:51:45;6.05;;;3.63;;
84357;SDS011;74548;47.712;9.272;2024-03-22T04:54:10;5.50;;;3.40;;
84357;SDS011;74548;47.712;9.272;2024-03-22T04:56:36;5.65;;;3.47;;
84357;SDS011;74548;47.712;9.272;2024-03-22T04:59:01;6.28;;;3.55;;
84357;SDS011;74548;47.712;9.272;2024-03-22T05:01:26;4.00;;;3.23;;
84357;SDS011;74548;47.712;9.272;2024-03-22T05:03:52;5.85;;;3.60;;
84357;SDS011;74548;47.712;9.272;2024-03-22T05:06:18;6.33;;;3.37;;
84357;SDS011;74548;47.712;9.272;2024-03-22T05:08:43;4.13;;;3.20;;
84357;SDS011;74548;47.712;9.272;2024-03-22T05:11:09;5.80;;;2.95;;
84357;SDS011;74548;47.712;9.272;2024-03-22T05:13:34;4.70;;;2.90;;
84357;SDS011;74548;47.712;9.272;2024-03-22T05:15:59;10.43;;;4.10;;
84357;SDS011;74548;47.712;9.272;2024-03-22T05:18:25;5.43;;;3.43;;
84357;SDS011;74548;47.712;9.272;2024-03-22T05:20:50;7.87;;;3.77;;
84357;SDS011;74548;47.712;9.272;2024-03-22T05:23:15;6.25;;;3.60;;
84357;SDS011;74548;47.712;9.272;2024-03-22T05:25:41;8.05;;;3.88;;
84357;SDS011;74548;47.712;9.272;2024-03-22T05:28:07;6.40;;;3.78;;
84357;SDS011;74548;47.712;9.272;2024-03-22T05:30:33;5.53;;;3.70;;
84357;SDS011;74548;47.712;9.272;2024-03-22T05:32:58;5.60;;;3.87;;
84357;SDS011;74548;47.712;9.272;2024-03-22T05:35:24;6.78;;;3.90;;
84357;SDS011;74548;47.712;9.272;2024-03-22T05:37:49;5.78;;;4.20;;
84357;SDS011;74548;47.712;9.272;2024-03-22T05:40:15;6.40;;;3.50;;
84357;SDS011;74548;47.712;9.272;2024-03-22T05:42:41;6.75;;;3.60;;
84357;SDS011;74548;47.712;9.272;2024-03-22T05:45:06;8.75;;;4.38;;
84357;SDS011;74548;47.712;9.272;2024-03-22T05:47:32;5.05;;;3.55;;
84357;SDS011;74548;47.712;9.272;2024-03-22T05:49:59;6.50;;;3.60;;
84357;SDS011;74548;47.712;9.272;2024-03-22T05:52:24;5.82;;;3.35;;
84357;SDS011;74548;47.712;9.272;2024-03-22T05:54:50;6.30;;;3.35;;
84357;SDS011;74548;47.712;9.272;2024-03-22T05:57:16;5.22;;;3.53;;
84357;SDS011;74548;47.712;9.272;2024-03-22T05:59:41;8.88;;;3.50;;
84357;SDS011;74548;47.712;9.272;2024-03-22T06:02:07;6.97;;;3.58;;
84357;SDS011;74548;47.712;9.272;2024-03-22T06:04:33;5.43;;;3.60;;
84357;SDS011;74548;47.712;9.272;2024-03-22T06:06:59;3.92;;;3.10;;
84357;SDS011;74548;47.712;9.272;2024-03-22T06:09:27;5.80;;;3.60;;
84357;SDS011;74548;47.712;9.272;2024-03-22T06:12:03;5.90;;;3.72;;
84357;SDS011;74548;47.712;9.272;2024-03-22T06:14:29;6.25;;;3.78;;
84357;SDS011;74548;47.712;9.272;2024-03-22T06:16:55;6.07;;;3.70;;
84357;SDS011;74548;47.712;9.272;2024-03-22T06:19:20;4.18;;;3.08;;
84357;SDS011;74548;47.712;9.272;2024-03-22T06:21:45;4.73;;;3.57;;
84357;SDS011;74548;47.712;9.272;2024-03-22T06:24:11;5.57;;;3.70;;
84357;SDS011;74548;47.712;9.272;2024-03-22T06:26:36;4.28;;;3.25;;
84357;SDS011;74548;47.712;9.272;2024-03-22T06:29:01;6.83;;;3.97;;
84357;SDS011;74548;47.712;9.272;2024-03-22T06:31:27;5.90;;;4.10;;
84357;SDS011;74548;47.712;9.272;2024-03-22T06:33:52;5.70;;;3.00;;
84357;SDS011;74548;47.712;9.272;2024-03-22T06:36:18;5.10;;;3.67;;
84357;SDS011;74548;47.712;9.272;2024-03-22T06:40:57;6.50;;;4.28;;
84357;SDS011;74548;47.712;9.272;2024-03-22T06:43:24;9.65;;;3.42;;
84357;SDS011;74548;47.712;9.272;2024-03-22T06:45:49;5.20;;;3.60;;
84357;SDS011;74548;47.712;9.272;2024-03-22T06:48:15;6.43;;;4.03;;
84357;SDS011;74548;47.712;9.272;2024-03-22T06:50:41;6.28;;;4.10;;
84357;SDS011;74548;47.712;9.272;2024-03-22T06:53:07;3.63;;;2.92;;
84357;SDS011;74548;47.712;9.272;2024-03-22T06:55:32;4.38;;;3.03;;
84357;SDS011;74548;47.712;9.272;2024-03-22T06:57:57;4.13;;;2.93;;
84357;SDS011;74548;47.712;9.272;2024-03-22T07:00:22;4.50;;;2.97;;
84357;SDS011;74548;47.712;9.272;2024-03-22T07:02:48;5.47;;;3.67;;
84357;SDS011;74548;47.712;9.272;2024-03-22T07:05:13;5.10;;;3.30;;
84357;SDS011;74548;47.712;9.272;2024-03-22T07:07:38;4.93;;;3.20;;
84357;SDS011;74548;47.712;9.272;2024-03-22T07:12:17;4.00;;;2.70;;
84357;SDS011;74548;47.712;9.272;2024-03-22T07:14:42;5.63;;;3.73;;
84357;SDS011;74548;47.712;9.272;2024-03-22T07:17:07;6.38;;;3.83;;
84357;SDS011;74548;47.712;9.272;2024-03-22T07:19:33;6.93;;;4.00;;
84357;SDS011;74548;47.712;9.272;2024-03-22T07:21:59;4.80;;;3.22;;
84357;SDS011;74548;47.712;9.272;2024-03-22T07:24:25;5.55;;;3.15;;
84357;SDS011;74548;47.712;9.272;2024-03-22T07:26:50;6.53;;;3.45;;
84357;SDS011;74548;47.712;9.272;2024-03-22T07:29:16;5.00;;;3.22;;
84357;SDS011;74548;47.712;9.272;2024-03-22T07:31:41;4.47;;;3.10;;
84357;SDS011;74548;47.712;9.272;2024-03-22T07:34:07;7.13;;;3.58;;
84357;SDS011;74548;47.712;9.272;2024-03-22T07:36:36;6.28;;;3.08;;
84357;SDS011;74548;47.712;9.272;2024-03-22T07:39:03;5.57;;;3.95;;
84357;SDS011;74548;47.712;9.272;2024-03-22T07:41:31;4.80;;;3.42;;
84357;SDS011;74548;47.712;9.272;2024-03-22T07:43:58;5.95;;;3.40;;
84357;SDS011;74548;47.712;9.272;2024-03-22T07:46:24;5.50;;;3.30;;
84357;SDS011;74548;47.712;9.272;2024-03-22T07:48:50;4.90;;;4.00;;
84357;SDS011;74548;47.712;9.272;2024-03-22T07:51:15;7.67;;;4.30;;
84357;SDS011;74548;47.712;9.272;2024-03-22T07:53:40;5.20;;;3.50;;
84357;SDS011;74548;47.712;9.272;2024-03-22T07:56:06;4.63;;;3.50;;
84357;SDS011;74548;47.712;9.272;2024-03-22T08:00:50;5.45;;;3.80;;
84357;SDS011;74548;47.712;9.272;2024-03-22T08:03:16;6.20;;;4.15;;
84357;SDS011;74548;47.712;9.272;2024-03-22T08:05:42;8.10;;;3.88;;
84357;SDS011;74548;47.712;9.272;2024-03-22T08:08:08;5.80;;;3.80;;
84357;SDS011;74548;47.712;9.272;2024-03-22T08:10:33;8.30;;;3.87;;
84357;SDS011;74548;47.712;9.272;2024-03-22T08:12:59;4.78;;;3.97;;
84357;SDS011;74548;47.712;9.272;2024-03-22T08:15:25;5.60;;;4.03;;
84357;SDS011;74548;47.712;9.272;2024-03-22T08:17:51;4.75;;;4.25;;
84357;SDS011;74548;47.712;9.272;2024-03-22T08:20:17;6.57;;;4.43;;
84357;SDS011;74548;47.712;9.272;2024-03-22T08:22:42;5.80;;;4.22;;
84357;SDS011;74548;47.712;9.272;2024-03-22T08:25:07;7.03;;;4.60;;
84357;SDS011;74548;47.712;9.272;2024-03-22T08:27:33;5.53;;;4.40;;
84357;SDS011;74548;47.712;9.272;2024-03-22T08:29:59;9.52;;;4.45;;
84357;SDS011;74548;47.712;9.272;2024-03-22T08:32:25;6.45;;;4.57;;
84357;SDS011;74548;47.712;9.272;2024-03-22T08:34:50;6.50;;;4.47;;
84357;SDS011;74548;47.712;9.272;2024-03-22T08:37:15;8.00;;;4.43;;
84357;SDS011;74548;47.712;9.272;2024-03-22T08:39:41;7.87;;;4.33;;
84357;SDS011;74548;47.712;9.272;2024-03-22T08:42:06;7.60;;;4.60;;
84357;SDS011;74548;47.712;9.272;2024-03-22T08:44:32;6.65;;;3.88;;
84357;SDS011;74548;47.712;9.272;2024-03-22T08:46:57;8.07;;;3.67;;
84357;SDS011;74548;47.712;9.272;2024-03-22T08:49:23;7.40;;;3.72;;
84357;SDS011;74548;47.712;9.272;2024-03-22T08:51:48;7.18;;;4.80;;
84357;SDS011;74548;47.712;9.272;2024-03-22T08:54:14;6.65;;;4.57;;
84357;SDS011;74548;47.712;9.272;2024-03-22T08:56:39;7.20;;;3.53;;
84357;SDS011;74548;47.712;9.272;2024-03-22T08:59:05;7.50;;;4.03;;
84357;SDS011;74548;47.712;9.272;2024-03-22T09:01:30;7.25;;;4.15;;
84357;SDS011;74548;47.712;9.272;2024-03-22T09:03:56;8.52;;;3.25;;
84357;SDS011;74548;47.712;9.272;2024-03-22T09:06:21;6.30;;;3.87;;
84357;SDS011;74548;47.712;9.272;2024-03-22T09:11:06;6.47;;;3.70;;
84357;SDS011;74548;47.712;9.272;2024-03-22T09:13:31;6.57;;;3.03;;
84357;SDS011;74548;47.712;9.272;2024-03-22T09:15:59;6.00;;;4.10;;
84357;SDS011;74548;47.712;9.272;2024-03-22T09:18:25;5.57;;;3.85;;
84357;SDS011;74548;47.712;9.272;2024-03-22T09:20:51;5.35;;;3.17;;
84357;SDS011;74548;47.712;9.272;2024-03-22T09:23:18;6.63;;;3.65;;
84357;SDS011;74548;47.712;9.272;2024-03-22T09:25:43;5.65;;;3.38;;
84357;SDS011;74548;47.712;9.272;2024-03-22T09:28:08;6.33;;;3.60;;
84357;SDS011;74548;47.712;9.272;2024-03-22T09:30:37;5.53;;;3.43;;
84357;SDS011;74548;47.712;9.272;2024-03-22T09:33:03;4.28;;;2.97;;
84357;SDS011;74548;47.712;9.272;2024-03-22T09:35:28;10.38;;;3.35;;
84357;SDS011;74548;47.712;9.272;2024-03-22T09:37:54;7.40;;;3.13;;
84357;SDS011;74548;47.712;9.272;2024-03-22T09:40:19;6.15;;;3.80;;
84357;SDS011;74548;47.712;9.272;2024-03-22T09:42:45;6.55;;;3.30;;
84357;SDS011;74548;47.712;9.272;2024-03-22T09:45:13;4.15;;;3.25;;
84357;SDS011;74548;47.712;9.272;2024-03-22T09:47:43;5.90;;;3.50;;
84357;SDS011;74548;47.712;9.272;2024-03-22T09:50:10;7.63;;;3.38;;
84357;SDS011;74548;47.712;9.272;2024-03-22T09:52:37;6.70;;;3.65;;
84357;SDS011;74548;47.712;9.272;2024-03-22T09:55:04;6.03;;;3.55;;
84357;SDS011;74548;47.712;9.272;2024-03-22T09:57:31;5.05;;;3.67;;
84357;SDS011;74548;47.712;9.272;2024-03-22T09:59:59;6.70;;;3.80;;
84357;SDS011;74548;47.712;9.272;2024-03-22T10:02:24;5.47;;;3.92;;
84357;SDS011;74548;47.712;9.272;2024-03-22T10:04:51;6.55;;;3.63;;
84357;SDS011;74548;47.712;9.272;2024-03-22T10:07:17;6.28;;;3.47;;
84357;SDS011;74548;47.712;9.272;2024-03-22T10:09:43;4.90;;;3.03;;
84357;SDS011;74548;47.712;9.272;2024-03-22T10:12:09;6.72;;;3.45;;
84357;SDS011;74548;47.712;9.272;2024-03-22T10:14:34;5.70;;;3.30;;
84357;SDS011;74548;47.712;9.272;2024-03-22T10:17:02;4.25;;;2.88;;
84357;SDS011;74548;47.712;9.272;2024-03-22T10:19:28;5.72;;;2.83;;
84357;SDS011;74548;47.712;9.272;2024-03-22T10:22:00;6.95;;;3.30;;
84357;SDS011;74548;47.712;9.272;2024-03-22T10:24:26;5.55;;;2.95;;
84357;SDS011;74548;47.712;9.272;2024-03-22T10:26:51;5.25;;;3.15;;
84357;SDS011;74548;47.712;9.272;2024-03-22T10:29:17;5.88;;;3.50;;
84357;SDS011;74548;47.712;9.272;2024-03-22T10:31:45;3.92;;;3.03;;
84357;SDS011;74548;47.712;9.272;2024-03-22T10:34:12;6.97;;;3.47;;
84357;SDS011;74548;47.712;9.272;2024-03-22T10:36:39;4.05;;;2.67;;
84357;SDS011;74548;47.712;9.272;2024-03-22T10:41:24;5.57;;;3.35;;
84357;SDS011;74548;47.712;9.272;2024-03-22T10:43:51;6.30;;;3.28;;
84357;SDS011;74548;47.712;9.272;2024-03-22T10:46:16;6.55;;;3.80;;
84357;SDS011;74548;47.712;9.272;2024-03-22T10:48:46;5.55;;;2.83;;
84357;SDS011;74548;47.712;9.272;2024-03-22T10:51:11;4.95;;;2.95;;
84357;SDS011;74548;47.712;9.272;2024-03-22T10:53:38;6.05;;;2.95;;
84357;SDS011;74548;47.712;9.272;2024-03-22T10:56:05;7.55;;;3.10;;
84357;SDS011;74548;47.712;9.272;2024-03-22T11:00:51;7.57;;;3.42;;
84357;SDS011;74548;47.712;9.272;2024-03-22T11:05:50;5.20;;;3.22;;
84357;SDS011;74548;47.712;9.272;2024-03-22T11:08:26;6.47;;;3.55;;
84357;SDS011;74548;47.712;9.272;2024-03-22T11:10:56;8.05;;;3.15;;
84357;SDS011;74548;47.712;9.272;2024-03-22T11:13:22;7.53;;;4.43;;
84357;SDS011;74548;47.712;9.272;2024-03-22T11:18:18;7.28;;;2.85;;
84357;SDS011;74548;47.712;9.272;2024-03-22T11:20:43;5.30;;;2.50;;
84357;SDS011;74548;47.712;9.272;2024-03-22T11:23:12;2.55;;;2.17;;
84357;SDS011;74548;47.712;9.272;2024-03-22T11:25:37;4.50;;;2.38;;
84357;SDS011;74548;47.712;9.272;2024-03-22T11:28:03;3.50;;;2.30;;
84357;SDS011;74548;47.712;9.272;2024-03-22T11:30:32;3.92;;;2.38;;
84357;SDS011;74548;47.712;9.272;2024-03-22T11:33:01;4.88;;;2.15;;
84357;SDS011;74548;47.712;9.272;2024-03-22T11:35:27;3.95;;;1.80;;
84357;SDS011;74548;47.712;9.272;2024-03-22T11:37:52;3.80;;;1.87;;
84357;SDS011;74548;47.712;9.272;2024-03-22T11:40:18;4.95;;;2.13;;
84357;SDS011;74548;47.712;9.272;2024-03-22T11:42:45;5.22;;;2.30;;
84357;SDS011;74548;47.712;9.272;2024-03-22T11:45:14;5.72;;;2.00;;
84357;SDS011;74548;47.712;9.272;2024-03-22T11:47:41;2.92;;;1.88;;
84357;SDS011;74548;47.712;9.272;2024-03-22T11:50:07;4.63;;;2.45;;
84357;SDS011;74548;47.712;9.272;2024-03-22T11:52:34;2.63;;;1.90;;
84357;SDS011;74548;47.712;9.272;2024-03-22T11:55:00;4.05;;;2.13;;
84357;SDS011;74548;47.712;9.272;2024-03-22T11:57:26;4.60;;;1.95;;
84357;SDS011;74548;47.712;9.272;2024-03-22T11:59:58;3.15;;;1.98;;
84357;SDS011;74548;47.712;9.272;2024-03-22T12:02:25;5.30;;;2.10;;
84357;SDS011;74548;47.712;9.272;2024-03-22T12:04:50;4.70;;;1.80;;
84357;SDS011;74548;47.712;9.272;2024-03-22T12:07:16;3.05;;;1.70;;
84357;SDS011;74548;47.712;9.272;2024-03-22T12:09:42;3.10;;;1.67;;
84357;SDS011;74548;47.712;9.272;2024-03-22T12:14:27;2.72;;;1.40;;
84357;SDS011;74548;47.712;9.272;2024-03-22T12:19:18;3.72;;;1.77;;
84357;SDS011;74548;47.712;9.272;2024-03-22T12:21:43;3.87;;;1.73;;
84357;SDS011;74548;47.712;9.272;2024-03-22T12:24:09;3.08;;;1.48;;
84357;SDS011;74548;47.712;9.272;2024-03-22T12:26:34;2.75;;;1.85;;
84357;SDS011;74548;47.712;9.272;2024-03-22T12:28:59;4.30;;;1.70;;
84357;SDS011;74548;47.712;9.272;2024-03-22T12:31:25;4.83;;;1.90;;
84357;SDS011;74548;47.712;9.272;2024-03-22T12:36:08;4.32;;;1.50;;
84357;SDS011;74548;47.712;9.272;2024-03-22T12:38:33;2.83;;;1.70;;
84357;SDS011;74548;47.712;9.272;2024-03-22T12:40:59;3.90;;;1.42;;
84357;SDS011;74548;47.712;9.272;2024-03-22T12:43:25;2.27;;;1.27;;
84357;SDS011;74548;47.712;9.272;2024-03-22T12:45:50;2.65;;;1.42;;
84357;SDS011;74548;47.712;9.272;2024-03-22T12:48:16;2.45;;;1.20;;
84357;SDS011;74548;47.712;9.272;2024-03-22T12:50:41;3.03;;;1.23;;
84357;SDS011;74548;47.712;9.272;2024-03-22T12:53:07;2.67;;;1.30;;
84357;SDS011;74548;47.712;9.272;2024-03-22T12:55:32;3.70;;;1.10;;
84357;SDS011;74548;47.712;9.272;2024-03-22T12:57:58;3.83;;;1.40;;
84357;SDS011;74548;47.712;9.272;2024-03-22T13:00:23;4.03;;;1.55;;
84357;SDS011;74548;47.712;9.272;2024-03-22T13:02:49;5.90;;;1.70;;
84357;SDS011;74548;47.712;9.272;2024-03-22T13:05:14;2.05;;;1.20;;
84357;SDS011;74548;47.712;9.272;2024-03-22T13:07:40;3.08;;;1.40;;
84357;SDS011;74548;47.712;9.272;2024-03-22T13:12:28;2.95;;;1.10;;
84357;SDS011;74548;47.712;9.272;2024-03-22T13:14:56;1.90;;;1.30;;
84357;SDS011;74548;47.712;9.272;2024-03-22T13:17:22;2.22;;;1.40;;
84357;SDS011;74548;47.712;9.272;2024-03-22T13:19:47;2.83;;;1.48;;
84357;SDS011;74548;47.712;9.272;2024-03-22T13:22:13;3.53;;;1.40;;
84357;SDS011;74548;47.712;9.272;2024-03-22T13:24:39;2.55;;;1.40;;
84357;SDS011;74548;47.712;9.272;2024-03-22T13:27:05;1.57;;;1.30;;
84357;SDS011;74548;47.712;9.272;2024-03-22T13:29:30;2.37;;;1.30;;
84357;SDS011;74548;47.712;9.272;2024-03-22T13:31:56;1.77;;;1.20;;
84357;SDS011;74548;47.712;9.272;2024-03-22T13:36:39;3.47;;;1.30;;
84357;SDS011;74548;47.712;9.272;2024-03-22T13:39:04;2.00;;;1.50;;
84357;SDS011;74548;47.712;9.272;2024-03-22T13:43:45;3.58;;;1.40;;
84357;SDS011;74548;47.712;9.272;2024-03-22T13:46:10;3.57;;;1.50;;
84357;SDS011;74548;47.712;9.272;2024-03-22T13:48:40;2.75;;;1.50;;
84357;SDS011;74548;47.712;9.272;2024-03-22T13:51:05;3.25;;;1.58;;
84357;SDS011;74548;47.712;9.272;2024-03-22T13:53:30;2.97;;;1.52;;
84357;SDS011;74548;47.712;9.272;2024-03-22T13:55:56;1.45;;;1.10;;
84357;SDS011;74548;47.712;9.272;2024-03-22T13:58:21;4.28;;;1.30;;
84357;SDS011;74548;47.712;9.272;2024-03-22T14:00:47;1.98;;;1.13;;
84357;SDS011;74548;47.712;9.272;2024-03-22T14:03:12;1.63;;;1.30;;
84357;SDS011;74548;47.712;9.272;2024-03-22T14:05:37;2.13;;;1.23;;
84357;SDS011;74548;47.712;9.272;2024-03-22T14:08:03;2.47;;;1.40;;
84357;SDS011;74548;47.712;9.272;2024-03-22T14:10:29;3.88;;;1.13;;
84357;SDS011;74548;47.712;9.272;2024-03-22T14:12:56;3.13;;;1.20;;
84357;SDS011;74548;47.712;9.272;2024-03-22T14:17:54;1.75;;;1.13;;
84357;SDS011;74548;47.712;9.272;2024-03-22T14:20:20;1.80;;;1.08;;
84357;SDS011;74548;47.712;9.272;2024-03-22T14:22:46;2.53;;;1.10;;
84357;SDS011;74548;47.712;9.272;2024-03-22T14:25:12;2.53;;;1.23;;
84357;SDS011;74548;47.712;9.272;2024-03-22T14:27:38;1.83;;;1.05;;
84357;SDS011;74548;47.712;9.272;2024-03-22T14:30:04;2.22;;;1.00;;
84357;SDS011;74548;47.712;9.272;2024-03-22T14:34:51;1.95;;;1.13;;
84357;SDS011;74548;47.712;9.272;2024-03-22T14:37:17;1.05;;;0.80;;
84357;SDS011;74548;47.712;9.272;2024-03-22T14:39:42;3.28;;;0.88;;
84357;SDS011;74548;47.712;9.272;2024-03-22T14:44:26;1.85;;;1.00;;
84357;SDS011;74548;47.712;9.272;2024-03-22T14:46:52;1.13;;;0.83;;
84357;SDS011;74548;47.712;9.272;2024-03-22T14:49:18;1.75;;;0.93;;
84357;SDS011;74548;47.712;9.272;2024-03-22T14:51:45;1.50;;;0.90;;
84357;SDS011;74548;47.712;9.272;2024-03-22T14:54:11;1.90;;;1.20;;
84357;SDS011;74548;47.712;9.272;2024-03-22T14:56:36;1.27;;;1.03;;
84357;SDS011;74548;47.712;9.272;2024-03-22T14:59:01;2.60;;;0.80;;
84357;SDS011;74548;47.712;9.272;2024-03-22T15:01:27;1.55;;;0.60;;
84357;SDS011;74548;47.712;9.272;2024-03-22T15:03:53;1.58;;;0.77;;
84357;SDS011;74548;47.712;9.272;2024-03-22T15:06:18;1.03;;;0.67;;
84357;SDS011;74548;47.712;9.272;2024-03-22T15:08:44;1.10;;;0.60;;
84357;SDS011;74548;47.712;9.272;2024-03-22T15:11:09;1.30;;;0.82;;
84357;SDS011;74548;47.712;9.272;2024-03-22T15:13:35;2.25;;;0.95;;
84357;SDS011;74548;47.712;9.272;2024-03-22T15:16:00;1.75;;;1.00;;
84357;SDS011;74548;47.712;9.272;2024-03-22T15:18:25;1.25;;;0.73;;
84357;SDS011;74548;47.712;9.272;2024-03-22T15:20:54;1.80;;;0.90;;
84357;SDS011;74548;47.712;9.272;2024-03-22T15:23:19;1.33;;;1.00;;
84357;SDS011;74548;47.712;9.272;2024-03-22T15:25:45;1.75;;;0.95;;
84357;SDS011;74548;47.712;9.272;2024-03-22T15:28:12;1.83;;;1.08;;
84357;SDS011;74548;47.712;9.272;2024-03-22T15:30:38;1.20;;;0.75;;
84357;SDS011;74548;47.712;9.272;2024-03-22T15:33:04;1.48;;;0.93;;
84357;SDS011;74548;47.712;9.272;2024-03-22T15:35:30;1.85;;;0.70;;